sensor_id;sensor_type;location;lat;lon;timestamp;P1;durP1;ratioP1;P2;durP2;ratioP2
56329;SDS011;42236;48.058;10.632;2023-06-19T00:02:22;132.02;;;125.05;;
56329;SDS011;42236;48.058;10.632;2023-06-19T00:05:23;12.32;;;11.82;;
56329;SDS011;42236;48.058;10.632;2023-06-19T00:11:30;61.17;;;57.88;;
56329;SDS011;42236;48.058;10.632;2023-06-19T00:17:55;30.83;;;29.42;;
56329;SDS011;42236;48.058;10.632;2023-06-19T00:20:42;22.75;;;21.83;;
56329;SDS011;42236;48.058;10.632;2023-06-19T00:23:33;68.07;;;64.80;;
56329;SDS011;42236;48.058;10.632;2023-06-19T00:26:22;18.23;;;17.55;;
56329;SDS011;42236;48.058;10.632;2023-06-19T00:29:17;42.17;;;40.28;;
56329;SDS011;42236;48.058;10.632;2023-06-19T00:32:03;9.95;;;9.60;;
56329;SDS011;42236;48.058;10.632;2023-06-19T00:35:31;27.73;;;26.52;;
56329;SDS011;42236;48.058;10.632;2023-06-19T00:38:17;34.65;;;33.20;;
56329;SDS011;42236;48.058;10.632;2023-06-19T00:41:06;13.48;;;12.93;;
56329;SDS011;42236;48.058;10.632;2023-06-19T00:43:55;8.38;;;8.07;;
56329;SDS011;42236;48.058;10.632;2023-06-19T00:46:47;0.30;;;0.30;;
56329;SDS011;42236;48.058;10.632;2023-06-19T00:49:55;9.20;;;8.88;;
56329;SDS011;42236;48.058;10.632;2023-06-19T00:53:04;1.05;;;1.05;;
56329;SDS011;42236;48.058;10.632;2023-06-19T00:55:55;15.40;;;14.82;;
56329;SDS011;42236;48.058;10.632;2023-06-19T00:58:42;33.40;;;31.92;;
56329;SDS011;42236;48.058;10.632;2023-06-19T01:01:51;8.25;;;7.95;;
56329;SDS011;42236;48.058;10.632;2023-06-19T01:04:37;2.28;;;2.22;;
56329;SDS011;42236;48.058;10.632;2023-06-19T01:07:25;8.40;;;8.13;;
56329;SDS011;42236;48.058;10.632;2023-06-19T01:10:47;7.03;;;6.82;;
56329;SDS011;42236;48.058;10.632;2023-06-19T01:17:18;0.00;;;0.00;;
56329;SDS011;42236;48.058;10.632;2023-06-19T01:20:22;0.00;;;0.00;;
56329;SDS011;42236;48.058;10.632;2023-06-19T01:23:27;0.00;;;0.00;;
56329;SDS011;42236;48.058;10.632;2023-06-19T01:26:13;0.00;;;0.00;;
56329;SDS011;42236;48.058;10.632;2023-06-19T01:29:02;0.00;;;0.00;;
56329;SDS011;42236;48.058;10.632;2023-06-19T01:32:06;0.10;;;0.10;;
56329;SDS011;42236;48.058;10.632;2023-06-19T01:35:11;0.10;;;0.10;;
56329;SDS011;42236;48.058;10.632;2023-06-19T01:38:35;0.00;;;0.00;;
56329;SDS011;42236;48.058;10.632;2023-06-19T01:44:37;0.00;;;0.00;;
56329;SDS011;42236;48.058;10.632;2023-06-19T01:51:00;0.00;;;0.00;;
56329;SDS011;42236;48.058;10.632;2023-06-19T01:53:51;0.00;;;0.00;;
56329;SDS011;42236;48.058;10.632;2023-06-19T01:56:56;0.00;;;0.00;;
56329;SDS011;42236;48.058;10.632;2023-06-19T02:03:30;0.00;;;0.00;;
56329;SDS011;42236;48.058;10.632;2023-06-19T02:09:38;0.10;;;0.10;;
56329;SDS011;42236;48.058;10.632;2023-06-19T02:12:27;0.00;;;0.00;;
56329;SDS011;42236;48.058;10.632;2023-06-19T02:15:13;0.20;;;0.20;;
56329;SDS011;42236;48.058;10.632;2023-06-19T02:18:02;0.00;;;0.00;;
56329;SDS011;42236;48.058;10.632;2023-06-19T02:20:51;0.00;;;0.00;;
56329;SDS011;42236;48.058;10.632;2023-06-19T02:23:37;0.00;;;0.00;;
56329;SDS011;42236;48.058;10.632;2023-06-19T02:26:22;0.00;;;0.00;;
56329;SDS011;42236;48.058;10.632;2023-06-19T02:29:25;0.00;;;0.00;;
56329;SDS011;42236;48.058;10.632;2023-06-19T02:32:20;0.00;;;0.00;;
56329;SDS011;42236;48.058;10.632;2023-06-19T02:35:15;0.00;;;0.00;;
56329;SDS011;42236;48.058;10.632;2023-06-19T02:41:29;0.00;;;0.00;;
56329;SDS011;42236;48.058;10.632;2023-06-19T02:44:24;0.00;;;0.00;;
56329;SDS011;42236;48.058;10.632;2023-06-19T02:47:09;0.00;;;0.00;;
56329;SDS011;42236;48.058;10.632;2023-06-19T02:50:14;0.00;;;0.00;;
56329;SDS011;42236;48.058;10.632;2023-06-19T02:53:00;0.00;;;0.00;;
56329;SDS011;42236;48.058;10.632;2023-06-19T02:55:48;0.00;;;0.00;;
56329;SDS011;42236;48.058;10.632;2023-06-19T03:02:23;0.00;;;0.00;;
56329;SDS011;42236;48.058;10.632;2023-06-19T03:05:10;0.00;;;0.00;;
56329;SDS011;42236;48.058;10.632;2023-06-19T03:08:01;0.00;;;0.00;;
56329;SDS011;42236;48.058;10.632;2023-06-19T03:10:56;0.00;;;0.00;;
56329;SDS011;42236;48.058;10.632;2023-06-19T03:13:51;0.00;;;0.00;;
56329;SDS011;42236;48.058;10.632;2023-06-19T03:19:59;0.00;;;0.00;;
56329;SDS011;42236;48.058;10.632;2023-06-19T03:22:51;0.00;;;0.00;;
56329;SDS011;42236;48.058;10.632;2023-06-19T03:26:14;0.00;;;0.00;;
56329;SDS011;42236;48.058;10.632;2023-06-19T03:29:00;0.00;;;0.00;;
56329;SDS011;42236;48.058;10.632;2023-06-19T03:31:46;0.00;;;0.00;;
56329;SDS011;42236;48.058;10.632;2023-06-19T03:34:32;0.00;;;0.00;;
56329;SDS011;42236;48.058;10.632;2023-06-19T03:37:18;0.00;;;0.00;;
56329;SDS011;42236;48.058;10.632;2023-06-19T03:40:04;0.00;;;0.00;;
56329;SDS011;42236;48.058;10.632;2023-06-19T03:43:01;0.00;;;0.00;;
56329;SDS011;42236;48.058;10.632;2023-06-19T03:45:47;0.00;;;0.00;;
56329;SDS011;42236;48.058;10.632;2023-06-19T03:48:33;0.00;;;0.00;;
56329;SDS011;42236;48.058;10.632;2023-06-19T03:51:18;0.00;;;0.00;;
56329;SDS011;42236;48.058;10.632;2023-06-19T03:54:04;0.00;;;0.00;;
56329;SDS011;42236;48.058;10.632;2023-06-19T03:57:00;0.00;;;0.00;;
56329;SDS011;42236;48.058;10.632;2023-06-19T03:59:58;0.00;;;0.00;;
56329;SDS011;42236;48.058;10.632;2023-06-19T04:02:47;0.00;;;0.00;;
56329;SDS011;42236;48.058;10.632;2023-06-19T04:05:33;0.00;;;0.00;;
56329;SDS011;42236;48.058;10.632;2023-06-19T04:08:21;0.00;;;0.00;;
56329;SDS011;42236;48.058;10.632;2023-06-19T04:11:07;0.00;;;0.00;;
56329;SDS011;42236;48.058;10.632;2023-06-19T04:13:59;0.00;;;0.00;;
56329;SDS011;42236;48.058;10.632;2023-06-19T04:16:48;0.00;;;0.00;;
56329;SDS011;42236;48.058;10.632;2023-06-19T04:19:39;0.00;;;0.00;;
56329;SDS011;42236;48.058;10.632;2023-06-19T04:22:40;0.10;;;0.10;;
56329;SDS011;42236;48.058;10.632;2023-06-19T04:25:27;0.00;;;0.00;;
56329;SDS011;42236;48.058;10.632;2023-06-19T04:28:15;0.00;;;0.00;;
56329;SDS011;42236;48.058;10.632;2023-06-19T04:31:04;0.00;;;0.00;;
56329;SDS011;42236;48.058;10.632;2023-06-19T04:33:56;0.00;;;0.00;;
56329;SDS011;42236;48.058;10.632;2023-06-19T04:36:42;0.00;;;0.00;;
56329;SDS011;42236;48.058;10.632;2023-06-19T04:39:48;0.00;;;0.00;;
56329;SDS011;42236;48.058;10.632;2023-06-19T04:42:34;0.00;;;0.00;;
56329;SDS011;42236;48.058;10.632;2023-06-19T04:45:20;0.00;;;0.00;;
56329;SDS011;42236;48.058;10.632;2023-06-19T04:48:08;0.00;;;0.00;;
56329;SDS011;42236;48.058;10.632;2023-06-19T04:50:54;0.00;;;0.00;;
56329;SDS011;42236;48.058;10.632;2023-06-19T04:53:51;0.00;;;0.00;;
56329;SDS011;42236;48.058;10.632;2023-06-19T04:56:40;0.10;;;0.10;;
56329;SDS011;42236;48.058;10.632;2023-06-19T04:59:28;0.00;;;0.00;;
56329;SDS011;42236;48.058;10.632;2023-06-19T05:02:16;0.00;;;0.00;;
56329;SDS011;42236;48.058;10.632;2023-06-19T05:05:02;0.00;;;0.00;;
56329;SDS011;42236;48.058;10.632;2023-06-19T05:07:48;0.00;;;0.00;;
56329;SDS011;42236;48.058;10.632;2023-06-19T05:11:04;0.00;;;0.00;;
56329;SDS011;42236;48.058;10.632;2023-06-19T05:13:50;0.00;;;0.00;;
56329;SDS011;42236;48.058;10.632;2023-06-19T05:16:36;0.00;;;0.00;;
56329;SDS011;42236;48.058;10.632;2023-06-19T05:19:22;0.00;;;0.00;;
56329;SDS011;42236;48.058;10.632;2023-06-19T05:22:11;0.00;;;0.00;;
56329;SDS011;42236;48.058;10.632;2023-06-19T05:24:59;0.00;;;0.00;;
56329;SDS011;42236;48.058;10.632;2023-06-19T05:27:45;0.00;;;0.00;;
56329;SDS011;42236;48.058;10.632;2023-06-19T05:30:34;0.00;;;0.00;;
56329;SDS011;42236;48.058;10.632;2023-06-19T05:33:25;0.00;;;0.00;;
56329;SDS011;42236;48.058;10.632;2023-06-19T05:36:12;0.00;;;0.00;;
56329;SDS011;42236;48.058;10.632;2023-06-19T05:39:23;0.00;;;0.00;;
56329;SDS011;42236;48.058;10.632;2023-06-19T05:42:09;0.00;;;0.00;;
56329;SDS011;42236;48.058;10.632;2023-06-19T05:44:58;0.00;;;0.00;;
56329;SDS011;42236;48.058;10.632;2023-06-19T05:47:43;0.00;;;0.00;;
56329;SDS011;42236;48.058;10.632;2023-06-19T05:51:12;0.00;;;0.00;;
56329;SDS011;42236;48.058;10.632;2023-06-19T05:53:44;0.00;;;0.00;;
56329;SDS011;42236;48.058;10.632;2023-06-19T05:56:32;0.00;;;0.00;;
56329;SDS011;42236;48.058;10.632;2023-06-19T05:59:18;0.00;;;0.00;;
56329;SDS011;42236;48.058;10.632;2023-06-19T06:02:07;0.20;;;0.20;;
56329;SDS011;42236;48.058;10.632;2023-06-19T06:04:53;0.20;;;0.20;;
56329;SDS011;42236;48.058;10.632;2023-06-19T06:07:45;0.00;;;0.00;;
56329;SDS011;42236;48.058;10.632;2023-06-19T06:10:33;0.00;;;0.00;;
56329;SDS011;42236;48.058;10.632;2023-06-19T06:13:22;0.00;;;0.00;;
56329;SDS011;42236;48.058;10.632;2023-06-19T06:16:08;0.00;;;0.00;;
56329;SDS011;42236;48.058;10.632;2023-06-19T06:18:56;0.00;;;0.00;;
56329;SDS011;42236;48.058;10.632;2023-06-19T06:21:54;0.00;;;0.00;;
56329;SDS011;42236;48.058;10.632;2023-06-19T06:24:40;0.00;;;0.00;;
56329;SDS011;42236;48.058;10.632;2023-06-19T06:27:40;0.00;;;0.00;;
56329;SDS011;42236;48.058;10.632;2023-06-19T06:31:14;0.00;;;0.00;;
56329;SDS011;42236;48.058;10.632;2023-06-19T06:34:05;0.00;;;0.00;;
56329;SDS011;42236;48.058;10.632;2023-06-19T06:37:15;0.00;;;0.00;;
56329;SDS011;42236;48.058;10.632;2023-06-19T06:40:29;0.00;;;0.00;;
56329;SDS011;42236;48.058;10.632;2023-06-19T06:43:36;0.00;;;0.00;;
56329;SDS011;42236;48.058;10.632;2023-06-19T06:46:28;0.00;;;0.00;;
56329;SDS011;42236;48.058;10.632;2023-06-19T06:49:14;0.00;;;0.00;;
56329;SDS011;42236;48.058;10.632;2023-06-19T06:52:06;0.00;;;0.00;;
56329;SDS011;42236;48.058;10.632;2023-06-19T06:54:52;0.00;;;0.00;;
56329;SDS011;42236;48.058;10.632;2023-06-19T06:57:41;0.00;;;0.00;;
56329;SDS011;42236;48.058;10.632;2023-06-19T07:00:27;0.00;;;0.00;;
56329;SDS011;42236;48.058;10.632;2023-06-19T07:06:46;1.48;;;1.48;;
56329;SDS011;42236;48.058;10.632;2023-06-19T07:09:32;0.00;;;0.00;;
56329;SDS011;42236;48.058;10.632;2023-06-19T07:12:18;0.00;;;0.00;;
56329;SDS011;42236;48.058;10.632;2023-06-19T07:15:07;0.00;;;0.00;;
56329;SDS011;42236;48.058;10.632;2023-06-19T07:17:53;0.00;;;0.00;;
56329;SDS011;42236;48.058;10.632;2023-06-19T07:20:44;0.00;;;0.00;;
56329;SDS011;42236;48.058;10.632;2023-06-19T07:23:36;0.00;;;0.00;;
56329;SDS011;42236;48.058;10.632;2023-06-19T07:26:41;0.00;;;0.00;;
56329;SDS011;42236;48.058;10.632;2023-06-19T07:29:27;0.00;;;0.00;;
56329;SDS011;42236;48.058;10.632;2023-06-19T07:32:15;0.00;;;0.00;;
56329;SDS011;42236;48.058;10.632;2023-06-19T07:35:01;0.00;;;0.00;;
56329;SDS011;42236;48.058;10.632;2023-06-19T07:37:50;0.00;;;0.00;;
56329;SDS011;42236;48.058;10.632;2023-06-19T07:40:45;0.00;;;0.00;;
56329;SDS011;42236;48.058;10.632;2023-06-19T07:43:30;0.00;;;0.00;;
56329;SDS011;42236;48.058;10.632;2023-06-19T07:49:27;0.00;;;0.00;;
56329;SDS011;42236;48.058;10.632;2023-06-19T07:52:13;0.00;;;0.00;;
56329;SDS011;42236;48.058;10.632;2023-06-19T07:54:59;0.00;;;0.00;;
56329;SDS011;42236;48.058;10.632;2023-06-19T07:57:45;0.00;;;0.00;;
56329;SDS011;42236;48.058;10.632;2023-06-19T08:00:36;0.00;;;0.00;;
56329;SDS011;42236;48.058;10.632;2023-06-19T08:03:25;0.00;;;0.00;;
56329;SDS011;42236;48.058;10.632;2023-06-19T08:06:31;0.00;;;0.00;;
56329;SDS011;42236;48.058;10.632;2023-06-19T08:09:17;0.00;;;0.00;;
56329;SDS011;42236;48.058;10.632;2023-06-19T08:12:08;0.00;;;0.00;;
56329;SDS011;42236;48.058;10.632;2023-06-19T08:14:57;0.00;;;0.00;;
56329;SDS011;42236;48.058;10.632;2023-06-19T08:17:45;0.00;;;0.00;;
56329;SDS011;42236;48.058;10.632;2023-06-19T08:20:31;0.00;;;0.00;;
56329;SDS011;42236;48.058;10.632;2023-06-19T08:23:23;0.00;;;0.00;;
56329;SDS011;42236;48.058;10.632;2023-06-19T08:26:12;0.00;;;0.00;;
56329;SDS011;42236;48.058;10.632;2023-06-19T08:28:58;0.00;;;0.00;;
56329;SDS011;42236;48.058;10.632;2023-06-19T08:31:44;0.00;;;0.00;;
56329;SDS011;42236;48.058;10.632;2023-06-19T08:34:30;0.00;;;0.00;;
56329;SDS011;42236;48.058;10.632;2023-06-19T08:37:18;0.00;;;0.00;;
56329;SDS011;42236;48.058;10.632;2023-06-19T08:40:04;0.00;;;0.00;;
56329;SDS011;42236;48.058;10.632;2023-06-19T08:42:57;0.00;;;0.00;;
56329;SDS011;42236;48.058;10.632;2023-06-19T08:45:43;0.00;;;0.00;;
56329;SDS011;42236;48.058;10.632;2023-06-19T08:48:38;0.00;;;0.00;;
56329;SDS011;42236;48.058;10.632;2023-06-19T08:51:24;0.00;;;0.00;;
56329;SDS011;42236;48.058;10.632;2023-06-19T08:54:12;1.80;;;1.80;;
56329;SDS011;42236;48.058;10.632;2023-06-19T08:57:02;5.38;;;5.28;;
56329;SDS011;42236;48.058;10.632;2023-06-19T08:59:48;11.73;;;11.43;;
56329;SDS011;42236;48.058;10.632;2023-06-19T09:02:47;1.95;;;1.95;;
56329;SDS011;42236;48.058;10.632;2023-06-19T09:05:40;0.50;;;0.50;;
56329;SDS011;42236;48.058;10.632;2023-06-19T09:08:29;0.80;;;0.80;;
56329;SDS011;42236;48.058;10.632;2023-06-19T09:11:18;0.60;;;0.60;;
56329;SDS011;42236;48.058;10.632;2023-06-19T09:14:07;0.80;;;0.80;;
56329;SDS011;42236;48.058;10.632;2023-06-19T09:16:53;0.40;;;0.40;;
56329;SDS011;42236;48.058;10.632;2023-06-19T09:20:01;0.40;;;0.40;;
56329;SDS011;42236;48.058;10.632;2023-06-19T09:22:53;0.40;;;0.40;;
56329;SDS011;42236;48.058;10.632;2023-06-19T09:25:49;0.90;;;0.90;;
56329;SDS011;42236;48.058;10.632;2023-06-19T09:38:59;0.00;;;0.00;;
56329;SDS011;42236;48.058;10.632;2023-06-19T09:46:03;0.00;;;0.00;;
56329;SDS011;42236;48.058;10.632;2023-06-19T09:52:42;0.00;;;0.00;;
56329;SDS011;42236;48.058;10.632;2023-06-19T10:03:13;0.00;;;0.00;;
56329;SDS011;42236;48.058;10.632;2023-06-19T10:09:32;0.00;;;0.00;;
56329;SDS011;42236;48.058;10.632;2023-06-19T10:16:04;0.00;;;0.00;;
56329;SDS011;42236;48.058;10.632;2023-06-19T10:25:42;0.00;;;0.00;;
56329;SDS011;42236;48.058;10.632;2023-06-19T10:33:18;0.10;;;0.10;;
56329;SDS011;42236;48.058;10.632;2023-06-19T10:36:16;0.20;;;0.20;;
56329;SDS011;42236;48.058;10.632;2023-06-19T10:39:08;0.20;;;0.20;;
56329;SDS011;42236;48.058;10.632;2023-06-19T10:41:57;0.10;;;0.10;;
56329;SDS011;42236;48.058;10.632;2023-06-19T10:44:56;0.10;;;0.10;;
56329;SDS011;42236;48.058;10.632;2023-06-19T10:47:55;0.00;;;0.00;;
56329;SDS011;42236;48.058;10.632;2023-06-19T10:54:09;0.00;;;0.00;;
56329;SDS011;42236;48.058;10.632;2023-06-19T10:56:58;0.00;;;0.00;;
56329;SDS011;42236;48.058;10.632;2023-06-19T10:59:57;0.00;;;0.00;;
56329;SDS011;42236;48.058;10.632;2023-06-19T11:03:02;0.00;;;0.00;;
56329;SDS011;42236;48.058;10.632;2023-06-19T11:05:51;0.00;;;0.00;;
56329;SDS011;42236;48.058;10.632;2023-06-19T11:08:52;0.00;;;0.00;;
56329;SDS011;42236;48.058;10.632;2023-06-19T11:18:47;0.00;;;0.00;;
56329;SDS011;42236;48.058;10.632;2023-06-19T11:21:36;0.00;;;0.00;;
56329;SDS011;42236;48.058;10.632;2023-06-19T11:28:03;0.00;;;0.00;;
56329;SDS011;42236;48.058;10.632;2023-06-19T11:34:31;0.00;;;0.00;;
56329;SDS011;42236;48.058;10.632;2023-06-19T11:37:18;0.00;;;0.00;;
56329;SDS011;42236;48.058;10.632;2023-06-19T11:43:43;0.00;;;0.00;;
56329;SDS011;42236;48.058;10.632;2023-06-19T11:49:35;0.50;;;0.50;;
56329;SDS011;42236;48.058;10.632;2023-06-19T11:52:21;0.10;;;0.10;;
56329;SDS011;42236;48.058;10.632;2023-06-19T11:58:34;0.00;;;0.00;;
56329;SDS011;42236;48.058;10.632;2023-06-19T12:01:31;0.00;;;0.00;;
56329;SDS011;42236;48.058;10.632;2023-06-19T12:04:18;0.00;;;0.00;;
56329;SDS011;42236;48.058;10.632;2023-06-19T12:07:04;0.00;;;0.00;;
56329;SDS011;42236;48.058;10.632;2023-06-19T12:09:52;0.00;;;0.00;;
56329;SDS011;42236;48.058;10.632;2023-06-19T12:12:50;0.00;;;0.00;;
56329;SDS011;42236;48.058;10.632;2023-06-19T12:15:42;0.00;;;0.00;;
56329;SDS011;42236;48.058;10.632;2023-06-19T12:18:27;0.00;;;0.00;;
56329;SDS011;42236;48.058;10.632;2023-06-19T12:21:13;0.00;;;0.00;;
56329;SDS011;42236;48.058;10.632;2023-06-19T12:24:03;0.00;;;0.00;;
56329;SDS011;42236;48.058;10.632;2023-06-19T12:26:49;0.00;;;0.00;;
56329;SDS011;42236;48.058;10.632;2023-06-19T12:29:41;0.00;;;0.00;;
56329;SDS011;42236;48.058;10.632;2023-06-19T12:32:27;0.00;;;0.00;;
56329;SDS011;42236;48.058;10.632;2023-06-19T12:35:13;0.00;;;0.00;;
56329;SDS011;42236;48.058;10.632;2023-06-19T12:38:05;4.40;;;4.28;;
56329;SDS011;42236;48.058;10.632;2023-06-19T12:40:52;0.30;;;0.30;;
56329;SDS011;42236;48.058;10.632;2023-06-19T12:43:37;0.40;;;0.40;;
56329;SDS011;42236;48.058;10.632;2023-06-19T12:49:35;0.50;;;0.50;;
56329;SDS011;42236;48.058;10.632;2023-06-19T12:52:50;0.10;;;0.10;;
56329;SDS011;42236;48.058;10.632;2023-06-19T12:56:05;0.00;;;0.00;;
56329;SDS011;42236;48.058;10.632;2023-06-19T12:58:55;0.00;;;0.00;;
56329;SDS011;42236;48.058;10.632;2023-06-19T13:01:41;0.00;;;0.00;;
56329;SDS011;42236;48.058;10.632;2023-06-19T13:07:48;0.00;;;0.00;;
56329;SDS011;42236;48.058;10.632;2023-06-19T13:10:36;0.10;;;0.10;;
56329;SDS011;42236;48.058;10.632;2023-06-19T13:13:22;0.10;;;0.10;;
56329;SDS011;42236;48.058;10.632;2023-06-19T13:16:08;0.10;;;0.10;;
56329;SDS011;42236;48.058;10.632;2023-06-19T13:18:54;0.10;;;0.10;;
56329;SDS011;42236;48.058;10.632;2023-06-19T13:21:46;0.10;;;0.10;;
56329;SDS011;42236;48.058;10.632;2023-06-19T13:24:31;0.10;;;0.10;;
56329;SDS011;42236;48.058;10.632;2023-06-19T13:27:17;0.00;;;0.00;;
56329;SDS011;42236;48.058;10.632;2023-06-19T13:30:42;0.00;;;0.00;;
56329;SDS011;42236;48.058;10.632;2023-06-19T13:40:12;0.20;;;0.20;;
56329;SDS011;42236;48.058;10.632;2023-06-19T13:42:58;0.10;;;0.10;;
56329;SDS011;42236;48.058;10.632;2023-06-19T13:45:44;0.20;;;0.20;;
56329;SDS011;42236;48.058;10.632;2023-06-19T13:48:33;0.10;;;0.10;;
56329;SDS011;42236;48.058;10.632;2023-06-19T13:51:19;0.10;;;0.10;;
56329;SDS011;42236;48.058;10.632;2023-06-19T13:54:06;0.20;;;0.20;;
56329;SDS011;42236;48.058;10.632;2023-06-19T13:59:51;0.10;;;0.10;;
56329;SDS011;42236;48.058;10.632;2023-06-19T14:02:37;0.10;;;0.10;;
56329;SDS011;42236;48.058;10.632;2023-06-19T14:05:26;0.10;;;0.10;;
56329;SDS011;42236;48.058;10.632;2023-06-19T14:08:12;0.10;;;0.10;;
56329;SDS011;42236;48.058;10.632;2023-06-19T14:11:00;0.00;;;0.00;;
56329;SDS011;42236;48.058;10.632;2023-06-19T14:13:46;0.00;;;0.00;;
56329;SDS011;42236;48.058;10.632;2023-06-19T14:16:35;0.00;;;0.00;;
56329;SDS011;42236;48.058;10.632;2023-06-19T14:19:21;0.00;;;0.00;;
56329;SDS011;42236;48.058;10.632;2023-06-19T14:22:14;0.00;;;0.00;;
56329;SDS011;42236;48.058;10.632;2023-06-19T14:25:05;24.02;;;22.85;;
56329;SDS011;42236;48.058;10.632;2023-06-19T14:27:54;8.75;;;8.55;;
56329;SDS011;42236;48.058;10.632;2023-06-19T14:30:40;3.67;;;3.67;;
56329;SDS011;42236;48.058;10.632;2023-06-19T14:33:36;4.50;;;4.40;;
56329;SDS011;42236;48.058;10.632;2023-06-19T14:36:23;5.05;;;4.95;;
56329;SDS011;42236;48.058;10.632;2023-06-19T14:39:09;5.35;;;5.25;;
56329;SDS011;42236;48.058;10.632;2023-06-19T14:41:57;9.65;;;9.45;;
56329;SDS011;42236;48.058;10.632;2023-06-19T14:44:42;1.70;;;1.70;;
56329;SDS011;42236;48.058;10.632;2023-06-19T14:47:28;33.65;;;32.08;;
56329;SDS011;42236;48.058;10.632;2023-06-19T14:50:14;11.43;;;11.13;;
56329;SDS011;42236;48.058;10.632;2023-06-19T14:53:02;7.32;;;7.15;;
56329;SDS011;42236;48.058;10.632;2023-06-19T14:55:48;10.85;;;10.55;;
56329;SDS011;42236;48.058;10.632;2023-06-19T14:58:36;12.35;;;12.05;;
56329;SDS011;42236;48.058;10.632;2023-06-19T15:01:22;6.72;;;6.63;;
56329;SDS011;42236;48.058;10.632;2023-06-19T15:04:08;15.88;;;15.38;;
56329;SDS011;42236;48.058;10.632;2023-06-19T15:06:54;20.48;;;19.77;;
56329;SDS011;42236;48.058;10.632;2023-06-19T15:09:39;15.65;;;15.15;;
56329;SDS011;42236;48.058;10.632;2023-06-19T15:12:25;9.43;;;9.23;;
56329;SDS011;42236;48.058;10.632;2023-06-19T15:15:14;10.93;;;10.63;;
56329;SDS011;42236;48.058;10.632;2023-06-19T15:17:59;5.97;;;5.88;;
56329;SDS011;42236;48.058;10.632;2023-06-19T15:20:46;14.50;;;14.05;;
56329;SDS011;42236;48.058;10.632;2023-06-19T15:23:32;17.92;;;17.33;;
56329;SDS011;42236;48.058;10.632;2023-06-19T15:26:17;14.85;;;14.35;;
56329;SDS011;42236;48.058;10.632;2023-06-19T15:29:03;13.43;;;13.02;;
56329;SDS011;42236;48.058;10.632;2023-06-19T15:31:49;31.45;;;30.23;;
56329;SDS011;42236;48.058;10.632;2023-06-19T15:34:34;16.63;;;16.13;;
56329;SDS011;42236;48.058;10.632;2023-06-19T15:37:22;15.80;;;15.30;;
56329;SDS011;42236;48.058;10.632;2023-06-19T15:40:08;21.02;;;20.33;;
56329;SDS011;42236;48.058;10.632;2023-06-19T15:42:54;45.92;;;44.08;;
56329;SDS011;42236;48.058;10.632;2023-06-19T15:45:40;52.13;;;49.95;;
56329;SDS011;42236;48.058;10.632;2023-06-19T15:48:25;12.85;;;12.45;;
56329;SDS011;42236;48.058;10.632;2023-06-19T15:51:11;13.90;;;13.50;;
56329;SDS011;42236;48.058;10.632;2023-06-19T15:53:56;15.90;;;15.40;;
56329;SDS011;42236;48.058;10.632;2023-06-19T15:56:42;24.23;;;23.35;;
56329;SDS011;42236;48.058;10.632;2023-06-19T15:59:30;8.35;;;8.15;;
56329;SDS011;42236;48.058;10.632;2023-06-19T16:02:15;19.42;;;18.73;;
56329;SDS011;42236;48.058;10.632;2023-06-19T16:05:01;15.50;;;15.00;;
56329;SDS011;42236;48.058;10.632;2023-06-19T16:07:47;21.75;;;21.00;;
56329;SDS011;42236;48.058;10.632;2023-06-19T16:10:32;30.38;;;29.25;;
56329;SDS011;42236;48.058;10.632;2023-06-19T16:13:18;36.53;;;35.13;;
56329;SDS011;42236;48.058;10.632;2023-06-19T16:16:04;53.08;;;50.95;;
56329;SDS011;42236;48.058;10.632;2023-06-19T16:18:50;4.65;;;4.55;;
56329;SDS011;42236;48.058;10.632;2023-06-19T16:21:35;10.27;;;9.98;;
56329;SDS011;42236;48.058;10.632;2023-06-19T16:24:21;10.82;;;10.52;;
56329;SDS011;42236;48.058;10.632;2023-06-19T16:27:07;29.48;;;28.40;;
56329;SDS011;42236;48.058;10.632;2023-06-19T16:29:52;54.72;;;52.42;;
56329;SDS011;42236;48.058;10.632;2023-06-19T16:32:38;59.80;;;57.30;;
56329;SDS011;42236;48.058;10.632;2023-06-19T16:35:24;33.58;;;32.28;;
56329;SDS011;42236;48.058;10.632;2023-06-19T16:38:09;23.10;;;22.30;;
56329;SDS011;42236;48.058;10.632;2023-06-19T16:40:55;56.35;;;54.05;;
56329;SDS011;42236;48.058;10.632;2023-06-19T16:43:41;62.28;;;59.72;;
56329;SDS011;42236;48.058;10.632;2023-06-19T16:46:27;51.20;;;49.10;;
56329;SDS011;42236;48.058;10.632;2023-06-19T16:49:12;46.85;;;44.92;;
56329;SDS011;42236;48.058;10.632;2023-06-19T16:51:58;23.50;;;22.70;;
56329;SDS011;42236;48.058;10.632;2023-06-19T16:54:44;44.35;;;42.55;;
56329;SDS011;42236;48.058;10.632;2023-06-19T16:57:29;17.25;;;16.65;;
56329;SDS011;42236;48.058;10.632;2023-06-19T17:00:15;17.08;;;16.50;;
56329;SDS011;42236;48.058;10.632;2023-06-19T17:03:02;14.60;;;14.20;;
56329;SDS011;42236;48.058;10.632;2023-06-19T17:05:48;27.40;;;26.40;;
56329;SDS011;42236;48.058;10.632;2023-06-19T17:08:34;50.92;;;48.85;;
56329;SDS011;42236;48.058;10.632;2023-06-19T17:11:19;20.40;;;19.70;;
56329;SDS011;42236;48.058;10.632;2023-06-19T17:14:05;41.72;;;40.10;;
56329;SDS011;42236;48.058;10.632;2023-06-19T17:16:51;6.70;;;6.60;;
56329;SDS011;42236;48.058;10.632;2023-06-19T17:19:37;45.78;;;43.80;;
56329;SDS011;42236;48.058;10.632;2023-06-19T17:22:23;4.60;;;4.50;;
56329;SDS011;42236;48.058;10.632;2023-06-19T17:25:09;16.63;;;16.13;;
56329;SDS011;42236;48.058;10.632;2023-06-19T17:27:55;14.65;;;14.23;;
56329;SDS011;42236;48.058;10.632;2023-06-19T17:30:41;7.90;;;7.70;;
56329;SDS011;42236;48.058;10.632;2023-06-19T17:33:26;13.48;;;13.07;;
56329;SDS011;42236;48.058;10.632;2023-06-19T17:36:12;12.52;;;12.15;;
56329;SDS011;42236;48.058;10.632;2023-06-19T17:38:58;16.92;;;16.38;;
56329;SDS011;42236;48.058;10.632;2023-06-19T17:41:44;28.33;;;27.23;;
56329;SDS011;42236;48.058;10.632;2023-06-19T17:44:29;46.75;;;44.67;;
56329;SDS011;42236;48.058;10.632;2023-06-19T17:47:15;17.67;;;17.08;;
56329;SDS011;42236;48.058;10.632;2023-06-19T17:50:01;68.15;;;65.35;;
56329;SDS011;42236;48.058;10.632;2023-06-19T17:52:47;36.72;;;35.30;;
56329;SDS011;42236;48.058;10.632;2023-06-19T17:55:32;23.75;;;22.90;;
56329;SDS011;42236;48.058;10.632;2023-06-19T17:58:18;21.13;;;20.38;;
56329;SDS011;42236;48.058;10.632;2023-06-19T18:01:03;30.92;;;29.75;;
56329;SDS011;42236;48.058;10.632;2023-06-19T18:03:49;15.13;;;14.63;;
56329;SDS011;42236;48.058;10.632;2023-06-19T18:06:36;16.00;;;15.50;;
56329;SDS011;42236;48.058;10.632;2023-06-19T18:09:22;17.75;;;17.15;;
56329;SDS011;42236;48.058;10.632;2023-06-19T18:12:08;12.10;;;11.77;;
56329;SDS011;42236;48.058;10.632;2023-06-19T18:14:54;22.50;;;21.70;;
56329;SDS011;42236;48.058;10.632;2023-06-19T18:17:40;21.35;;;20.60;;
56329;SDS011;42236;48.058;10.632;2023-06-19T18:20:26;12.82;;;12.43;;
56329;SDS011;42236;48.058;10.632;2023-06-19T18:23:12;19.30;;;18.65;;
56329;SDS011;42236;48.058;10.632;2023-06-19T18:25:57;18.90;;;18.30;;
56329;SDS011;42236;48.058;10.632;2023-06-19T18:28:43;27.23;;;26.23;;
56329;SDS011;42236;48.058;10.632;2023-06-19T18:31:29;12.50;;;12.10;;
56329;SDS011;42236;48.058;10.632;2023-06-19T18:34:15;25.08;;;24.17;;
56329;SDS011;42236;48.058;10.632;2023-06-19T18:37:12;23.40;;;22.52;;
56329;SDS011;42236;48.058;10.632;2023-06-19T18:39:58;0.32;;;0.32;;
56329;SDS011;42236;48.058;10.632;2023-06-19T18:42:44;0.40;;;0.40;;
56329;SDS011;42236;48.058;10.632;2023-06-19T18:45:30;0.40;;;0.40;;
56329;SDS011;42236;48.058;10.632;2023-06-19T18:48:16;0.35;;;0.35;;
56329;SDS011;42236;48.058;10.632;2023-06-19T18:51:01;0.30;;;0.30;;
56329;SDS011;42236;48.058;10.632;2023-06-19T18:53:48;3.88;;;3.75;;